Time;durP1;ratioP1;P1;durP2;ratioP2;P2;SDS_P1;SDS_P2;PMS_P1;PMS_P2;Temp;Humidity;BMP_temperature;BMP_pressure;BME280_temperature;BME280_humidity;BME280_pressure;Samples;Min_cycle;Max_cycle;Signal;HPM_P1;HPM_P2
2022/04/19 00:01:38;;;;;;;8.93;6.90;;;9.10;1.00;;;;;;5117038;27;20193;-60
2022/04/19 00:04:07;;;;;;;12.37;8.23;;;9.00;1.00;;;;;;5120045;28;20200;-60
2022/04/19 00:06:37;;;;;;;9.77;7.70;;;8.90;1.00;;;;;;5119780;28;20555;-60
2022/04/19 00:09:04;;;;;;;9.43;7.37;;;8.80;1.00;;;;;;5119318;28;20215;-60
2022/04/19 00:11:31;;;;;;;10.53;8.50;;;8.80;1.00;;;;;;5099152;28;20719;-60
2022/04/19 00:14:01;;;;;;;9.43;7.60;;;8.70;1.00;;;;;;5118279;28;20220;-60
2022/04/19 00:16:30;;;;;;;11.43;8.43;;;8.70;1.00;;;;;;5101682;28;20189;-60
2022/04/19 00:18:58;;;;;;;8.53;7.20;;;8.70;1.00;;;;;;5118266;27;20217;-60
2022/04/19 00:21:27;;;;;;;11.20;8.33;;;8.70;1.00;;;;;;5117647;27;20259;-60
2022/04/19 00:23:58;;;;;;;9.60;7.97;;;8.70;1.00;;;;;;5100977;28;20316;-59
2022/04/19 00:26:26;;;;;;;10.90;8.70;;;8.70;1.00;;;;;;5100516;28;20608;-59
2022/04/19 00:29:02;;;;;;;13.67;8.37;;;8.60;1.00;;;;;;5119957;27;20216;-60
2022/04/19 00:31:29;;;;;;;9.87;7.70;;;8.50;1.00;;;;;;5118654;27;20241;-59
2022/04/19 00:33:57;;;;;;;9.47;7.93;;;8.50;1.00;;;;;;5117773;27;20681;-59
2022/04/19 00:36:24;;;;;;;12.27;7.33;;;8.40;1.00;;;;;;5117267;28;20241;-60
2022/04/19 00:38:54;;;;;;;9.90;7.53;;;8.30;1.00;;;;;;5118360;27;20198;-59
2022/04/19 00:41:24;;;;;;;9.93;7.93;;;8.20;1.00;;;;;;5117660;28;20262;-59
2022/04/19 00:44:19;;;;;;;9.57;7.87;;;8.20;1.00;;;;;;5116033;27;20241;-59
2022/04/19 00:46:48;;;;;;;12.73;8.47;;;8.20;1.00;;;;;;5096056;28;20702;-59
2022/04/19 00:49:19;;;;;;;10.70;8.80;;;8.10;1.00;;;;;;5100871;28;20213;-59
2022/04/19 00:51:46;;;;;;;10.77;8.60;;;8.10;1.00;;;;;;5117608;27;20236;-59
2022/04/19 00:54:17;;;;;;;10.83;8.37;;;8.00;1.00;;;;;;5100367;28;20196;-60
2022/04/19 00:56:48;;;;;;;10.30;8.40;;;8.00;1.00;;;;;;5115669;27;20202;-59
2022/04/19 00:59:15;;;;;;;11.43;8.70;;;8.00;28.80;;;;;;5106525;28;20212;-59
2022/04/19 01:01:43;;;;;;;11.43;8.53;;;7.90;91.60;;;;;;5113678;28;20203;-59
2022/04/19 01:04:20;;;;;;;10.43;8.87;;;7.90;99.90;;;;;;5112633;28;20258;-59
2022/04/19 01:06:49;;;;;;;16.97;10.10;;;7.80;99.90;;;;;;5116417;27;20757;-59
2022/04/19 01:09:17;;;;;;;12.63;9.10;;;7.80;99.90;;;;;;5102662;27;20204;-59
2022/04/19 01:14:34;;;;;;;12.30;8.63;;;7.80;99.90;;;;;;5119304;27;20188;-59
2022/04/19 01:17:08;;;;;;;15.37;10.17;;;7.80;99.90;;;;;;5104274;27;20204;-59
2022/04/19 01:19:38;;;;;;;10.90;8.53;;;7.70;99.90;;;;;;5118803;27;20230;-59
2022/04/19 01:22:12;;;;;;;9.60;8.33;;;7.70;99.90;;;;;;5102021;27;20193;-59
2022/04/19 01:24:43;;;;;;;9.90;8.37;;;7.70;99.90;;;;;;5112863;27;20233;-59
2022/04/19 01:27:15;;;;;;;13.07;8.80;;;7.70;99.90;;;;;;5103797;27;20343;-61
2022/04/19 01:29:45;;;;;;;10.37;8.43;;;7.70;99.90;;;;;;5104921;27;20201;-59
2022/04/19 01:32:13;;;;;;;10.53;8.90;;;7.60;99.90;;;;;;5106128;27;20217;-59
2022/04/19 01:34:41;;;;;;;11.50;9.03;;;7.60;99.90;;;;;;5106261;27;20196;-59
2022/04/19 01:37:15;;;;;;;11.43;8.27;;;7.40;99.90;;;;;;5118610;27;20208;-60
2022/04/19 01:42:38;;;;;;;11.37;8.77;;;7.50;99.90;;;;;;5112761;27;20209;-60
2022/04/19 01:45:05;;;;;;;12.40;8.53;;;7.50;99.90;;;;;;5103475;27;20197;-59
2022/04/19 01:47:32;;;;;;;11.77;8.97;;;7.50;99.90;;;;;;5104484;27;20213;-60
2022/04/19 01:49:59;;;;;;;12.33;9.23;;;7.40;99.90;;;;;;5104143;27;20250;-61
2022/04/19 01:52:31;;;;;;;10.53;8.47;;;7.40;99.90;;;;;;5118224;27;20664;-59
2022/04/19 01:55:00;;;;;;;14.63;11.50;;;7.30;99.90;;;;;;5103582;27;20331;-60
2022/04/19 01:57:32;;;;;;;12.17;9.67;;;7.30;99.90;;;;;;5103946;27;20312;-60
2022/04/19 01:59:59;;;;;;;15.90;9.07;;;7.20;99.90;;;;;;5103847;27;20266;-59
2022/04/19 02:02:45;;;;;;;13.70;9.00;;;7.10;99.90;;;;;;5088383;27;20190;-60
2022/04/19 02:05:17;;;;;;;10.80;8.73;;;7.10;99.90;;;;;;5120013;27;20727;-59
2022/04/19 02:07:46;;;;;;;12.23;9.23;;;7.20;99.90;;;;;;5103942;27;20592;-59
2022/04/19 02:10:16;;;;;;;11.90;8.33;;;7.10;99.90;;;;;;5118553;27;20203;-60
2022/04/19 02:12:46;;;;;;;12.50;8.53;;;7.10;99.90;;;;;;5102615;27;20730;-59
2022/04/19 02:15:33;;;;;;;11.90;9.63;;;7.00;99.90;;;;;;5083327;27;20205;-61
2022/04/19 02:18:15;;;;;;;13.47;9.00;;;6.70;1.00;;;;;;5103496;27;20207;-60
2022/04/19 02:20:45;;;;;;;11.30;9.00;;;6.60;1.00;;;;;;5111558;27;20718;-60
2022/04/19 02:23:13;;;;;;;11.43;8.73;;;6.60;1.00;;;;;;5121405;27;21215;-60
2022/04/19 02:25:41;;;;;;;12.20;9.20;;;6.60;1.00;;;;;;5120852;27;20189;-61
2022/04/19 02:28:10;;;;;;;13.27;9.40;;;6.50;1.00;;;;;;5119740;27;20249;-61
2022/04/19 02:30:57;;;;;;;12.40;9.27;;;6.40;1.00;;;;;;5102434;27;20291;-61
2022/04/19 02:33:29;;;;;;;14.37;9.87;;;6.20;1.00;;;;;;5101737;27;20220;-60
2022/04/19 02:35:59;;;;;;;14.77;10.63;;;6.00;1.00;;;;;;5093276;27;20216;-60
2022/04/19 02:38:26;;;;;;;17.23;9.77;;;5.90;1.00;;;;;;5123451;27;20224;-60
2022/04/19 02:41:01;;;;;;;12.53;9.67;;;5.90;1.00;;;;;;5102446;27;20189;-61
2022/04/19 02:43:29;;;;;;;13.30;9.77;;;5.90;1.00;;;;;;5102450;27;20249;-60
2022/04/19 02:45:57;;;;;;;11.70;9.03;;;5.90;1.00;;;;;;5115895;27;20253;-60
2022/04/19 02:48:34;;;;;;;12.53;9.00;;;5.90;1.00;;;;;;5102469;27;20218;-60
2022/04/19 02:51:02;;;;;;;11.77;8.57;;;5.90;1.00;;;;;;5104376;27;20197;-60
2022/04/19 02:53:29;;;;;;;14.50;9.33;;;5.90;1.00;;;;;;5120314;27;20757;-60
2022/04/19 02:55:56;;;;;;;12.43;9.30;;;5.80;1.00;;;;;;5117230;27;20651;-61
2022/04/19 02:58:25;;;;;;;12.37;8.53;;;5.80;1.00;;;;;;5101656;27;20223;-60
2022/04/19 03:00:55;;;;;;;11.23;9.07;;;5.80;1.00;;;;;;5103261;27;20193;-60
2022/04/19 03:03:22;;;;;;;12.60;9.67;;;5.80;1.00;;;;;;5102489;27;20201;-60
2022/04/19 03:05:52;;;;;;;11.20;9.27;;;5.80;1.00;;;;;;5100053;27;20224;-60
2022/04/19 03:08:19;;;;;;;13.33;10.07;;;5.80;1.00;;;;;;5101151;27;20273;-60
2022/04/19 03:10:47;;;;;;;12.90;9.80;;;5.80;1.00;;;;;;5101413;27;20201;-60
2022/04/19 03:13:16;;;;;;;12.10;9.27;;;5.80;1.00;;;;;;5096922;27;20217;-60
2022/04/19 03:15:44;;;;;;;16.60;10.43;;;5.80;1.00;;;;;;5084776;27;20230;-60
2022/04/19 03:18:14;;;;;;;12.50;9.37;;;5.70;1.00;;;;;;5100880;28;20295;-60
2022/04/19 03:20:45;;;;;;;12.63;9.30;;;5.70;1.00;;;;;;5102745;27;20185;-60
2022/04/19 03:29:00;;;;;;;13.40;9.73;;;5.70;1.00;;;;;;5116709;27;20204;-59
2022/04/19 03:31:32;;;;;;;13.53;9.80;;;5.60;1.00;;;;;;5101063;27;20201;-60
2022/04/19 03:33:59;;;;;;;13.73;10.73;;;5.60;1.00;;;;;;5104075;27;20216;-60
2022/04/19 03:36:29;;;;;;;12.53;10.43;;;5.60;1.00;;;;;;5102832;27;20225;-60
2022/04/19 03:38:58;;;;;;;14.67;10.70;;;5.50;1.00;;;;;;5119090;27;20201;-60
2022/04/19 03:41:44;;;;;;;13.43;9.70;;;5.50;1.00;;;;;;5118772;27;20308;-60
2022/04/19 03:44:14;;;;;;;14.67;10.17;;;5.40;1.00;;;;;;5100065;27;20251;-59
2022/04/19 03:49:34;;;;;;;21.30;13.40;;;5.50;1.00;;;;;;5118566;27;20190;-60
2022/04/19 03:52:02;;;;;;;17.37;12.23;;;5.50;1.00;;;;;;5118646;27;20198;-60
2022/04/19 03:54:29;;;;;;;14.10;11.13;;;5.50;1.00;;;;;;5100795;28;20192;-60
2022/04/19 03:56:56;;;;;;;15.77;11.27;;;5.50;1.00;;;;;;5101860;27;20200;-60
2022/04/19 03:59:26;;;;;;;15.60;11.33;;;5.40;1.00;;;;;;5117765;27;20236;-60
2022/04/19 04:01:52;;;;;;;15.53;10.93;;;5.50;1.00;;;;;;5102501;27;20201;-60
2022/04/19 04:04:21;;;;;;;16.00;12.53;;;5.50;1.00;;;;;;5101109;28;20268;-60
2022/04/19 04:06:48;;;;;;;20.80;13.80;;;5.40;1.00;;;;;;5116879;28;20208;-59
2022/04/19 04:09:15;;;;;;;22.20;14.40;;;5.40;1.00;;;;;;5102727;28;20231;-60
2022/04/19 04:11:46;;;;;;;18.40;12.80;;;5.40;1.00;;;;;;5102404;28;20204;-60
2022/04/19 04:14:17;;;;;;;19.60;12.90;;;5.40;1.00;;;;;;5120068;27;20213;-60
2022/04/19 04:16:45;;;;;;;18.30;13.07;;;5.40;1.00;;;;;;5091585;27;20228;-59
2022/04/19 04:19:15;;;;;;;18.13;13.20;;;5.40;1.00;;;;;;5116031;27;20242;-60
2022/04/19 04:21:42;;;;;;;18.73;12.43;;;5.40;1.00;;;;;;5102065;28;20594;-61
2022/04/19 04:24:09;;;;;;;16.87;11.73;;;5.40;1.00;;;;;;5101607;28;20205;-60
2022/04/19 04:26:41;;;;;;;18.33;12.87;;;5.30;1.00;;;;;;5118183;28;20647;-60
2022/04/19 04:29:09;;;;;;;16.97;12.57;;;5.20;1.00;;;;;;5102034;28;20212;-61
2022/04/19 04:31:38;;;;;;;18.00;12.83;;;5.30;1.00;;;;;;5101903;27;20197;-59
2022/04/19 04:34:10;;;;;;;20.37;13.60;;;5.30;1.00;;;;;;5116994;28;20206;-60
2022/04/19 04:36:38;;;;;;;29.90;17.33;;;5.30;1.00;;;;;;5100238;27;20217;-59
2022/04/19 04:39:04;;;;;;;24.93;16.37;;;5.40;1.00;;;;;;5098283;28;20197;-59
2022/04/19 04:41:42;;;;;;;22.50;14.17;;;5.40;1.00;;;;;;5114717;28;20220;-59
2022/04/19 04:44:09;;;;;;;23.83;14.67;;;5.50;1.00;;;;;;5111115;27;20244;-59
2022/04/19 04:49:36;;;;;;;22.33;15.70;;;5.60;1.00;;;;;;5116332;27;20391;-60
2022/04/19 04:52:11;;;;;;;26.47;15.47;;;5.60;1.00;;;;;;5099551;28;20197;-60
2022/04/19 04:54:40;;;;;;;21.70;15.43;;;5.60;1.00;;;;;;5101156;27;20226;-60
2022/04/19 04:57:07;;;;;;;19.67;13.73;;;5.70;1.00;;;;;;5108248;28;20285;-60
2022/04/19 04:59:35;;;;;;;15.40;11.77;;;5.70;1.00;;;;;;5100237;27;20270;-60
2022/04/19 05:02:04;;;;;;;17.73;11.97;;;5.60;1.00;;;;;;5111709;27;20224;-60
2022/04/19 05:04:33;;;;;;;15.00;10.50;;;5.60;1.00;;;;;;5116147;27;20242;-60
2022/04/19 05:07:01;;;;;;;17.77;11.70;;;5.60;1.00;;;;;;5099185;27;20207;-60
2022/04/19 05:09:33;;;;;;;17.57;11.17;;;5.60;1.00;;;;;;5100176;28;20723;-60
2022/04/19 05:12:01;;;;;;;14.30;10.67;;;5.70;1.00;;;;;;5112977;27;20612;-62
2022/04/19 05:14:30;;;;;;;13.67;10.70;;;5.70;1.00;;;;;;5105655;28;20692;-60
2022/04/19 05:16:56;;;;;;;15.60;10.43;;;5.80;1.00;;;;;;5099387;28;20723;-60
2022/04/19 05:19:23;;;;;;;13.30;9.93;;;5.80;1.00;;;;;;5098607;28;20226;-60
2022/04/19 05:21:52;;;;;;;14.30;11.03;;;5.90;1.00;;;;;;5114683;27;20194;-60
2022/04/19 05:24:19;;;;;;;12.90;10.33;;;5.90;1.00;;;;;;5097120;28;20225;-60
2022/04/19 05:26:46;;;;;;;14.83;11.03;;;6.00;1.00;;;;;;5111655;27;20197;-60
2022/04/19 05:29:13;;;;;;;13.90;10.10;;;6.20;1.00;;;;;;5116410;27;20198;-60
2022/04/19 05:31:40;;;;;;;16.43;10.70;;;6.30;1.00;;;;;;5098739;28;20197;-59
2022/04/19 05:34:07;;;;;;;16.23;9.97;;;6.40;1.00;;;;;;5099513;28;20991;-59
2022/04/19 05:36:35;;;;;;;13.63;10.17;;;6.60;1.00;;;;;;5112228;27;20533;-60
2022/04/19 05:39:02;;;;;;;18.90;11.43;;;6.70;1.00;;;;;;5099728;27;20305;-60
2022/04/19 05:41:31;;;;;;;15.07;11.23;;;6.80;1.00;;;;;;5112461;27;20202;-60
2022/04/19 05:43:58;;;;;;;15.60;11.07;;;7.00;1.00;;;;;;5107068;28;20328;-60
2022/04/19 05:46:25;;;;;;;14.67;10.43;;;7.00;1.00;;;;;;5098266;27;20879;-60
2022/04/19 05:48:53;;;;;;;13.93;10.47;;;7.00;1.00;;;;;;5100568;27;20643;-60
2022/04/19 05:51:20;;;;;;;13.60;11.07;;;6.90;1.00;;;;;;5097863;28;20209;-61
2022/04/19 05:53:47;;;;;;;13.50;11.17;;;7.10;1.00;;;;;;5098911;28;20259;-60
2022/04/19 05:56:15;;;;;;;15.00;11.20;;;7.40;1.00;;;;;;5097855;28;20213;-59
2022/04/19 05:58:42;;;;;;;13.57;10.13;;;10.20;99.90;;;;;;5115557;27;20766;-60
2022/04/19 06:01:10;;;;;;;13.17;10.00;;;14.00;1.00;;;;;;5100258;27;20197;-59
2022/04/19 06:06:24;;;;;;;16.10;9.20;;;17.80;99.90;;;;;;5096963;28;20589;-60
2022/04/19 06:08:53;;;;;;;13.05;8.80;;;19.90;99.90;;;;;;5097809;28;20204;-60
2022/04/19 06:11:21;;;;;;;16.02;10.05;;;21.20;99.90;;;;;;5087193;28;20213;-60
2022/04/19 06:13:48;;;;;;;12.50;9.98;;;21.90;99.90;;;;;;5115029;27;20213;-60
2022/04/19 06:16:17;;;;;;;14.75;9.93;;;22.70;99.90;;;;;;5094900;28;20213;-59
2022/04/19 06:18:48;;;;;;;12.18;10.23;;;23.20;99.90;;;;;;5113866;27;20331;-60
2022/04/19 06:21:21;;;;;;;15.13;10.27;;;23.20;99.90;;;;;;5082657;28;20292;-60
2022/04/19 06:23:48;;;;;;;11.07;9.85;;;23.00;99.90;;;;;;5092409;28;20211;-60
2022/04/19 06:26:15;;;;;;;16.17;10.35;;;22.60;99.90;;;;;;5095453;28;20208;-59
2022/04/19 06:28:44;;;;;;;15.23;8.95;;;23.90;99.90;;;;;;5097385;27;20206;-59
2022/04/19 06:31:31;;;;;;;11.10;8.05;;;23.80;99.90;;;;;;5089000;28;20202;-59
2022/04/19 06:34:08;;;;;;;13.38;10.57;;;24.50;99.90;;;;;;5093673;28;20245;-59
2022/04/19 06:36:53;;;;;;;13.23;9.40;;;22.00;99.90;;;;;;5097913;28;20322;-59
2022/04/19 06:39:20;;;;;;;11.60;9.07;;;22.20;99.90;;;;;;5109570;27;20312;-60
2022/04/19 06:41:51;;;;;;;14.15;8.85;;;21.70;99.90;;;;;;5110263;27;20546;-60
2022/04/19 06:44:19;;;;;;;14.18;9.05;;;21.90;99.90;;;;;;5096621;27;20243;-59
2022/04/19 06:46:47;;;;;;;11.00;8.80;;;21.80;99.90;;;;;;5098197;28;20232;-59
2022/04/19 06:49:16;;;;;;;14.40;8.98;;;22.40;99.90;;;;;;5097556;28;20727;-60
2022/04/19 06:51:44;;;;;;;12.02;9.35;;;23.10;99.90;;;;;;5112899;27;20680;-59
2022/04/19 06:54:12;;;;;;;10.85;8.40;;;24.60;99.90;;;;;;5096816;28;20218;-59
2022/04/19 06:56:41;;;;;;;11.05;9.82;;;27.30;99.90;;;;;;5094568;28;20732;-60
2022/04/19 06:59:08;;;;;;;19.67;12.80;;;28.20;99.90;;;;;;5098141;28;20265;-60
2022/04/19 07:01:39;;;;;;;11.98;10.00;;;26.40;99.90;;;;;;5106097;28;20206;-60
2022/04/19 07:04:35;;;;;;;11.75;9.05;;;25.80;99.90;;;;;;5100898;28;20256;-59
2022/04/19 07:07:08;;;;;;;9.20;8.02;;;27.40;99.90;;;;;;5097521;28;20227;-60
2022/04/19 07:09:38;;;;;;;11.40;8.82;;;28.10;99.90;;;;;;5095395;28;20202;-60
2022/04/19 07:12:06;;;;;;;9.05;7.40;;;28.10;99.90;;;;;;5095078;28;20218;-60
2022/04/19 07:14:38;;;;;;;9.43;7.30;;;27.20;99.90;;;;;;5098280;28;20201;-59
2022/04/19 07:17:31;;;;;;;10.35;7.95;;;26.90;99.90;;;;;;5098585;28;20852;-59
2022/04/19 07:28:16;;;;;;;9.45;8.55;;;29.20;99.90;;;;;;5110463;27;20224;-59
2022/04/19 07:30:46;;;;;;;9.13;7.50;;;30.60;99.90;;;;;;5104523;28;20319;-60
2022/04/19 07:33:16;;;;;;;8.23;7.00;;;31.30;99.90;;;;;;5109709;27;20672;-60
2022/04/19 07:35:45;;;;;;;8.75;7.85;;;30.50;99.90;;;;;;5096510;27;20684;-60
2022/04/19 07:38:13;;;;;;;8.45;6.80;;;30.30;99.90;;;;;;5113202;28;20281;-60
2022/04/19 07:41:12;;;;;;;8.50;7.65;;;28.80;99.90;;;;;;5112779;27;20206;-60
2022/04/19 07:43:42;;;;;;;9.05;6.95;;;31.00;99.90;;;;;;5096203;28;20436;-60
2022/04/19 07:46:15;;;;;;;10.13;6.90;;;32.90;99.90;;;;;;5094791;28;20233;-60
2022/04/19 07:48:44;;;;;;;7.07;6.15;;;32.60;99.90;;;;;;5094894;28;20202;-60
2022/04/19 07:51:11;;;;;;;7.25;5.72;;;29.80;99.90;;;;;;5077074;28;20200;-60
2022/04/19 07:53:39;;;;;;;7.40;6.13;;;29.10;99.90;;;;;;5096616;28;20245;-60
2022/04/19 07:56:06;;;;;;;7.72;5.68;;;28.10;99.90;;;;;;5111984;27;20210;-59
2022/04/19 07:58:33;;;;;;;7.07;6.00;;;27.70;99.90;;;;;;5093780;28;20214;-59
2022/04/19 08:01:01;;;;;;;6.35;5.57;;;27.50;99.90;;;;;;5080376;28;20186;-59
2022/04/19 08:03:28;;;;;;;6.63;6.00;;;28.00;99.90;;;;;;5104536;27;20194;-59
2022/04/19 08:05:56;;;;;;;8.40;6.13;;;28.90;99.90;;;;;;5092984;28;20208;-59
2022/04/19 08:08:24;;;;;;;7.95;6.13;;;28.50;99.90;;;;;;5094792;28;21100;-59
2022/04/19 08:10:50;;;;;;;7.75;6.03;;;29.70;99.90;;;;;;5093282;28;20209;-58
2022/04/19 08:13:17;;;;;;;7.65;5.72;;;30.50;99.90;;;;;;5089108;28;20233;-59
2022/04/19 08:15:46;;;;;;;9.00;6.13;;;30.70;99.90;;;;;;5108537;27;20203;-58
2022/04/19 08:18:18;;;;;;;6.32;5.50;;;33.40;99.90;;;;;;5098559;27;20266;-58
2022/04/19 08:20:51;;;;;;;7.20;5.72;;;35.50;99.90;;;;;;5115535;27;20217;-59
2022/04/19 08:23:19;;;;;;;6.68;5.75;;;35.20;99.90;;;;;;5101710;27;20210;-59
2022/04/19 08:25:53;;;;;;;7.90;5.93;;;32.50;99.90;;;;;;5100048;27;20208;-59
2022/04/19 08:28:20;;;;;;;8.30;6.20;;;32.10;99.90;;;;;;5104910;27;20208;-59
2022/04/19 08:30:47;;;;;;;9.98;6.03;;;33.30;99.90;;;;;;5099716;27;20194;-59
2022/04/19 08:33:20;;;;;;;8.27;5.35;;;33.90;99.90;;;;;;5081408;28;20190;-59
2022/04/19 08:35:47;;;;;;;8.43;5.70;;;31.80;99.90;;;;;;5099299;27;21010;-59
2022/04/19 08:38:14;;;;;;;7.60;5.50;;;30.40;99.90;;;;;;5112773;27;20190;-59
2022/04/19 08:40:41;;;;;;;6.80;5.30;;;30.00;99.90;;;;;;5098440;28;20202;-59
2022/04/19 08:43:11;;;;;;;8.13;6.22;;;30.60;99.90;;;;;;5097597;28;20228;-59
2022/04/19 08:45:38;;;;;;;7.63;6.30;;;31.10;99.90;;;;;;5098440;28;20684;-59
2022/04/19 08:48:09;;;;;;;10.40;6.32;;;30.30;99.90;;;;;;5100143;28;20193;-58
2022/04/19 08:50:38;;;;;;;8.93;6.60;;;30.50;99.90;;;;;;5101128;27;20255;-57
2022/04/19 08:58:39;;;;;;;11.50;5.80;;;26.50;99.90;;;;;;5100622;27;20218;-59
2022/04/19 09:01:05;;;;;;;8.90;5.78;;;27.00;99.90;;;;;;5115294;27;20286;-57
2022/04/19 09:03:33;;;;;;;9.38;6.00;;;27.90;99.90;;;;;;5107282;27;20243;-60
2022/04/19 09:06:01;;;;;;;10.52;6.00;;;29.20;99.90;;;;;;5101135;28;20205;-57
2022/04/19 09:08:28;;;;;;;7.40;5.57;;;30.50;99.90;;;;;;5099694;27;20616;-59
2022/04/19 09:11:08;;;;;;;9.02;6.32;;;31.80;99.90;;;;;;5099329;27;20212;-59
2022/04/19 09:13:36;;;;;;;8.95;5.60;;;30.40;99.90;;;;;;5108957;27;20213;-59
2022/04/19 09:16:04;;;;;;;8.10;6.30;;;27.30;99.90;;;;;;5101415;27;20553;-58
2022/04/19 09:18:34;;;;;;;9.05;6.35;;;27.20;99.90;;;;;;5101374;27;20220;-60
2022/04/19 09:21:03;;;;;;;11.25;7.07;;;29.30;99.90;;;;;;5100324;27;20194;-59
2022/04/19 09:23:33;;;;;;;7.80;5.82;;;30.80;99.90;;;;;;5099774;27;20198;-59
2022/04/19 09:26:05;;;;;;;8.65;6.00;;;31.60;99.90;;;;;;5098445;28;20212;-59
2022/04/19 09:28:34;;;;;;;9.65;6.70;;;30.10;99.90;;;;;;5100398;27;20195;-59
2022/04/19 09:31:11;;;;;;;8.98;6.07;;;30.20;99.90;;;;;;5101739;27;20202;-58
2022/04/19 09:33:38;;;;;;;8.85;6.57;;;31.30;99.90;;;;;;5096764;28;20188;-59
2022/04/19 09:36:05;;;;;;;8.75;6.03;;;30.50;99.90;;;;;;5100211;27;20580;-59
2022/04/19 09:38:41;;;;;;;9.93;6.20;;;30.30;99.90;;;;;;5100170;27;20193;-59
2022/04/19 09:41:14;;;;;;;9.10;6.55;;;30.70;99.90;;;;;;5099915;28;20217;-60
2022/04/19 09:44:12;;;;;;;9.25;6.70;;;33.20;99.90;;;;;;5098017;28;20329;-60
2022/04/19 09:46:41;;;;;;;11.32;6.43;;;32.30;99.90;;;;;;5100677;27;20223;-57
2022/04/19 09:49:09;;;;;;;10.45;7.15;;;33.50;99.90;;;;;;5099273;28;20198;-59
2022/04/19 09:51:39;;;;;;;9.23;6.15;;;33.60;99.90;;;;;;5095315;28;20193;-59
2022/04/19 09:54:21;;;;;;;9.35;6.50;;;35.20;99.90;;;;;;5105286;27;20271;-59
2022/04/19 09:56:49;;;;;;;5.90;5.15;;;34.70;99.90;;;;;;5096783;27;20198;-59
2022/04/19 09:59:24;;;;;;;7.32;5.50;;;34.10;99.90;;;;;;5091728;28;20305;-59
2022/04/19 10:10:11;;;;;;;8.43;6.72;;;28.40;99.90;;;;;;5095556;28;20250;-60
2022/04/19 10:12:38;;;;;;;9.55;6.25;;;30.40;99.90;;;;;;5095063;27;20240;-60
2022/04/19 10:15:06;;;;;;;7.32;6.05;;;30.30;99.90;;;;;;5098801;27;20336;-60
2022/04/19 10:17:36;;;;;;;8.80;6.53;;;29.70;99.90;;;;;;5096873;27;20194;-60
2022/04/19 10:20:04;;;;;;;9.20;6.47;;;27.80;99.90;;;;;;5094996;28;20240;-60
2022/04/19 10:22:32;;;;;;;6.93;5.70;;;29.10;99.90;;;;;;5096131;28;20277;-60
2022/04/19 10:25:01;;;;;;;8.93;5.43;;;30.90;99.90;;;;;;5098780;27;20205;-60
2022/04/19 10:27:32;;;;;;;6.13;4.78;;;31.60;99.90;;;;;;5098229;28;20237;-60
2022/04/19 10:30:01;;;;;;;5.90;4.60;;;29.30;99.90;;;;;;5098884;27;20251;-60
2022/04/19 10:32:33;;;;;;;8.93;5.40;;;28.70;99.90;;;;;;5095709;27;20358;-59
2022/04/19 10:35:03;;;;;;;7.03;5.72;;;27.60;99.90;;;;;;5100865;27;20215;-59
2022/04/19 10:37:31;;;;;;;7.07;5.70;;;28.10;99.90;;;;;;5101304;28;20556;-58
2022/04/19 10:39:59;;;;;;;6.88;5.30;;;27.90;99.90;;;;;;5104642;27;20194;-59
2022/04/19 10:42:40;;;;;;;7.50;5.25;;;27.80;99.90;;;;;;5104115;28;20221;-59
2022/04/19 10:45:13;;;;;;;10.40;4.90;;;26.10;99.90;;;;;;5102135;27;20529;-59
2022/04/19 10:47:52;;;;;;;7.38;5.03;;;25.00;99.90;;;;;;5100116;27;20602;-59
2022/04/19 10:50:29;;;;;;;7.13;4.57;;;25.70;99.90;;;;;;5096807;28;20305;-59
2022/04/19 10:53:04;;;;;;;6.88;4.75;;;24.70;99.90;;;;;;5099474;27;20231;-59
2022/04/19 10:55:36;;;;;;;8.35;5.07;;;24.90;99.90;;;;;;5094301;28;20201;-59
2022/04/19 10:58:13;;;;;;;6.07;4.53;;;24.70;99.90;;;;;;5118298;27;20203;-59
2022/04/19 11:00:59;;;;;;;5.53;4.43;;;25.70;99.90;;;;;;5099339;28;20214;-58
2022/04/19 11:03:33;;;;;;;4.45;4.00;;;26.70;99.90;;;;;;5097239;27;20201;-59
2022/04/19 11:06:04;;;;;;;4.75;3.95;;;25.20;99.90;;;;;;5095427;28;20911;-59
2022/04/19 11:08:36;;;;;;;7.25;4.32;;;26.10;99.90;;;;;;5111720;27;20186;-59
2022/04/19 11:11:03;;;;;;;4.68;3.72;;;26.20;99.90;;;;;;5099228;28;20756;-58
2022/04/19 11:13:40;;;;;;;5.20;4.35;;;26.50;99.90;;;;;;5092617;28;20194;-60
2022/04/19 11:16:08;;;;;;;6.50;4.07;;;23.90;99.90;;;;;;5098843;28;20235;-59
2022/04/19 11:18:41;;;;;;;10.23;4.03;;;24.40;99.90;;;;;;5096910;27;20189;-59
2022/04/19 11:21:54;;;;;;;4.97;4.00;;;23.50;99.90;;;;;;5099045;28;20181;-59
2022/04/19 11:24:58;;;;;;;4.00;3.53;;;23.40;99.90;;;;;;5098125;27;20208;-59
2022/04/19 11:27:53;;;;;;;4.85;3.63;;;22.50;99.90;;;;;;5095067;27;20228;-59
2022/04/19 11:30:25;;;;;;;4.43;3.63;;;23.70;99.90;;;;;;5099172;27;20197;-59
2022/04/19 11:32:58;;;;;;;3.53;3.20;;;23.40;99.90;;;;;;5098823;28;20247;-59
2022/04/19 11:35:27;;;;;;;8.43;3.45;;;23.60;99.90;;;;;;5098183;28;20898;-60
2022/04/19 11:37:54;;;;;;;3.92;3.33;;;23.40;99.90;;;;;;5099898;28;20232;-59
2022/04/19 11:48:48;;;;;;;5.05;3.33;;;24.20;99.90;;;;;;5114685;27;20260;-58
2022/04/19 11:51:17;;;;;;;4.43;3.15;;;23.30;99.90;;;;;;5117203;27;20254;-59
2022/04/19 11:53:45;;;;;;;3.55;3.13;;;23.20;99.90;;;;;;5118982;27;20238;-59
2022/04/19 11:56:14;;;;;;;4.45;2.80;;;22.20;99.90;;;;;;5114429;27;20269;-59
2022/04/19 11:58:43;;;;;;;4.57;2.83;;;22.50;99.90;;;;;;5116002;27;20247;-59
2022/04/19 12:01:11;;;;;;;4.55;2.88;;;23.90;99.90;;;;;;5118342;27;20194;-59
2022/04/19 12:03:39;;;;;;;5.32;3.50;;;22.90;99.90;;;;;;5118163;27;20715;-59
2022/04/19 12:06:08;;;;;;;3.35;2.97;;;22.50;99.90;;;;;;5116314;27;20201;-59
2022/04/19 12:08:41;;;;;;;4.90;3.65;;;22.30;99.90;;;;;;5120439;27;20192;-59
2022/04/19 12:11:16;;;;;;;3.72;3.08;;;21.30;99.90;;;;;;5117112;27;20765;-58
2022/04/19 12:13:48;;;;;;;3.53;2.97;;;21.30;99.90;;;;;;5100847;28;20201;-59
2022/04/19 12:16:31;;;;;;;4.53;3.30;;;21.70;99.90;;;;;;5118051;27;20805;-59
2022/04/19 12:19:03;;;;;;;5.35;3.10;;;22.50;99.90;;;;;;5117919;27;20204;-59
2022/04/19 12:21:40;;;;;;;4.35;3.50;;;22.30;99.90;;;;;;5118224;27;20192;-61
2022/04/19 12:24:32;;;;;;;4.10;3.42;;;21.60;99.90;;;;;;5119242;27;20196;-59
2022/04/19 12:27:07;;;;;;;3.65;3.35;;;21.20;99.90;;;;;;5116990;27;20213;-59
2022/04/19 12:29:35;;;;;;;3.13;2.78;;;21.10;99.90;;;;;;5118210;27;20224;-60
2022/04/19 12:32:04;;;;;;;6.15;3.10;;;22.30;99.90;;;;;;5118232;27;20282;-59
2022/04/19 12:34:36;;;;;;;3.60;3.10;;;22.70;99.90;;;;;;5100408;28;20213;-59
2022/04/19 12:37:08;;;;;;;3.65;3.35;;;22.30;99.90;;;;;;5119847;27;20189;-59
2022/04/19 12:39:36;;;;;;;4.43;3.15;;;21.00;99.90;;;;;;5119476;27;20770;-58
2022/04/19 12:42:07;;;;;;;3.92;2.83;;;20.10;99.90;;;;;;5114116;27;20277;-59
2022/04/19 12:44:35;;;;;;;3.58;3.00;;;19.90;99.90;;;;;;5117659;27;20267;-59
2022/04/19 12:47:16;;;;;;;3.90;2.60;;;19.80;99.90;;;;;;5117357;27;20208;-60
2022/04/19 12:49:45;;;;;;;4.45;2.78;;;20.40;99.90;;;;;;5116358;27;20646;-59
2022/04/19 12:52:16;;;;;;;3.30;2.67;;;20.00;99.90;;;;;;5117581;27;20775;-59
2022/04/19 12:54:47;;;;;;;2.65;2.20;;;19.30;99.90;;;;;;5118467;27;20221;-59
2022/04/19 12:57:18;;;;;;;2.35;1.92;;;19.20;99.90;;;;;;5114169;27;20234;-59
2022/04/19 12:59:45;;;;;;;2.92;2.30;;;19.00;99.90;;;;;;5119413;27;20619;-59
2022/04/19 13:02:18;;;;;;;3.67;2.00;;;18.90;99.90;;;;;;5117782;27;20251;-59
2022/04/19 13:04:46;;;;;;;2.60;1.90;;;18.90;99.90;;;;;;5118473;27;20225;-59
2022/04/19 13:12:45;;;;;;;1.77;1.60;;;18.80;99.90;;;;;;5118509;27;20229;-59
2022/04/19 13:15:13;;;;;;;3.95;1.27;;;18.50;99.90;;;;;;5108955;27;20277;-59
2022/04/19 13:17:43;;;;;;;2.20;1.10;;;18.50;99.90;;;;;;5119029;27;20201;-59
2022/04/19 13:20:11;;;;;;;1.48;1.17;;;18.40;99.90;;;;;;5120951;27;20656;-59
2022/04/19 13:22:39;;;;;;;2.53;1.20;;;18.20;99.90;;;;;;5121513;27;20189;-59
2022/04/19 13:25:07;;;;;;;3.33;1.10;;;18.10;99.90;;;;;;5121873;27;20197;-59
2022/04/19 13:27:35;;;;;;;2.50;1.40;;;18.40;99.90;;;;;;5119191;27;20210;-60
2022/04/19 13:30:11;;;;;;;1.55;1.20;;;18.10;99.90;;;;;;5122656;27;20201;-59
2022/04/19 13:32:39;;;;;;;2.95;1.50;;;18.20;99.90;;;;;;5121569;27;20204;-58
2022/04/19 13:35:08;;;;;;;1.85;1.10;;;18.20;99.90;;;;;;5121642;27;20213;-58
2022/04/19 13:40:21;;;;;;;1.52;1.08;;;18.00;99.90;;;;;;5118633;27;20192;-58
2022/04/19 13:42:49;;;;;;;3.03;1.27;;;17.80;99.90;;;;;;5121892;27;20208;-58
2022/04/19 13:45:19;;;;;;;1.33;1.13;;;17.80;99.90;;;;;;5121950;27;20268;-59
2022/04/19 13:47:46;;;;;;;3.17;1.30;;;17.70;99.90;;;;;;5118620;27;20208;-58
2022/04/19 13:50:13;;;;;;;2.90;1.40;;;18.00;99.90;;;;;;5096888;27;20770;-59
2022/04/19 13:52:40;;;;;;;3.70;1.70;;;17.80;99.90;;;;;;5097740;27;20190;-60
2022/04/19 13:55:09;;;;;;;3.30;1.97;;;18.10;99.90;;;;;;5103903;27;20213;-59
2022/04/19 13:57:36;;;;;;;2.13;1.65;;;17.80;99.90;;;;;;5119674;27;20277;-60
2022/04/19 14:00:04;;;;;;;2.27;1.43;;;17.90;99.90;;;;;;5116510;27;20209;-60
2022/04/19 14:02:38;;;;;;;1.85;1.70;;;17.70;99.90;;;;;;5119817;27;20189;-58
2022/04/19 14:05:08;;;;;;;4.22;1.67;;;17.70;99.90;;;;;;5119257;27;20300;-59